La Aurora Airport Guatemala City US
ICAO: MGGT
IATA: GUA
Category: Medium
Scheduled Services: Yes

Elevation: 4952 ft
TransAlt. 18000 ft.

Airport Communications:
GUATEMALA RDO:126.9
CON:119.3
ATIS:126.5
CLNC DEL:120.7
GND:121.9
TWR:118.1

MGGT Zoom In..

Runways:

(A) RW 01 length 9800 ft width 197 ft
ILS 110.10 / hdg 16

(B) RW 19 length 9800 ft width 197 ft
---- / hdg 196

Location; MGGT
Day. 26 / Time. 04.00 Zulu
* Altimeter: 30.24
* Temperature: 18° c. 64.4°f.
* Wind from: 000° Speed 00 kn.
Dewpoint: 17° c.
Visibility: 4000 m.
Clouds: Scattered 800 ft.
Clouds: Broken 1200 ft.
Conditions: Slight Drizzle.Conditions: Mist.

MGGT 260400Z 00000KT 4000 -DZ BR SCT008 BKN012 18/17 Q1024 A3024


Wind - Calm.

 
 
jpsmedia.com for Web Design SOUNDCLOUD worldairports.se 2018   terms of use